sensor_id;sensor_type;location;lat;lon;timestamp;P1;durP1;ratioP1;P2;durP2;ratioP2
43990;SDS011;29654;50.784;20.604;2023-09-30T00:03:26;15.65;;;13.98;;
43990;SDS011;29654;50.784;20.604;2023-09-30T00:08:33;15.35;;;13.52;;
43990;SDS011;29654;50.784;20.604;2023-09-30T00:13:40;15.40;;;13.27;;
43990;SDS011;29654;50.784;20.604;2023-09-30T00:18:47;14.25;;;12.73;;
43990;SDS011;29654;50.784;20.604;2023-09-30T00:23:51;15.35;;;13.73;;
43990;SDS011;29654;50.784;20.604;2023-09-30T00:28:55;14.68;;;12.48;;
43990;SDS011;29654;50.784;20.604;2023-09-30T00:33:59;15.98;;;12.90;;
43990;SDS011;29654;50.784;20.604;2023-09-30T00:39:02;13.57;;;12.27;;
43990;SDS011;29654;50.784;20.604;2023-09-30T00:44:05;14.45;;;12.93;;
43990;SDS011;29654;50.784;20.604;2023-09-30T00:49:09;14.95;;;12.73;;
43990;SDS011;29654;50.784;20.604;2023-09-30T00:54:15;14.18;;;12.40;;
43990;SDS011;29654;50.784;20.604;2023-09-30T00:59:18;14.05;;;11.60;;
43990;SDS011;29654;50.784;20.604;2023-09-30T01:04:23;13.07;;;11.07;;
43990;SDS011;29654;50.784;20.604;2023-09-30T01:09:26;12.55;;;11.25;;
43990;SDS011;29654;50.784;20.604;2023-09-30T01:14:29;12.43;;;10.55;;
43990;SDS011;29654;50.784;20.604;2023-09-30T01:19:36;11.77;;;10.63;;
43990;SDS011;29654;50.784;20.604;2023-09-30T01:24:40;12.13;;;10.32;;
43990;SDS011;29654;50.784;20.604;2023-09-30T01:29:44;12.85;;;10.95;;
43990;SDS011;29654;50.784;20.604;2023-09-30T01:34:48;11.13;;;10.13;;
43990;SDS011;29654;50.784;20.604;2023-09-30T01:39:52;11.60;;;10.40;;
43990;SDS011;29654;50.784;20.604;2023-09-30T01:44:55;11.95;;;10.75;;
43990;SDS011;29654;50.784;20.604;2023-09-30T01:49:58;13.77;;;11.68;;
43990;SDS011;29654;50.784;20.604;2023-09-30T01:55:02;14.18;;;11.07;;
43990;SDS011;29654;50.784;20.604;2023-09-30T02:00:06;9.80;;;8.82;;
43990;SDS011;29654;50.784;20.604;2023-09-30T02:05:13;11.90;;;10.80;;
43990;SDS011;29654;50.784;20.604;2023-09-30T02:10:17;11.00;;;10.00;;
43990;SDS011;29654;50.784;20.604;2023-09-30T02:15:20;12.80;;;11.02;;
43990;SDS011;29654;50.784;20.604;2023-09-30T02:20:23;9.07;;;8.15;;
43990;SDS011;29654;50.784;20.604;2023-09-30T02:25:27;11.30;;;9.88;;
43990;SDS011;29654;50.784;20.604;2023-09-30T02:30:30;12.23;;;10.35;;
43990;SDS011;29654;50.784;20.604;2023-09-30T02:35:34;11.50;;;9.63;;
43990;SDS011;29654;50.784;20.604;2023-09-30T02:40:40;10.68;;;9.63;;
43990;SDS011;29654;50.784;20.604;2023-09-30T02:45:47;12.48;;;10.00;;
43990;SDS011;29654;50.784;20.604;2023-09-30T02:50:50;10.27;;;9.27;;
43990;SDS011;29654;50.784;20.604;2023-09-30T02:55:54;10.68;;;9.65;;
43990;SDS011;29654;50.784;20.604;2023-09-30T03:01:00;11.07;;;9.85;;
43990;SDS011;29654;50.784;20.604;2023-09-30T03:06:02;10.90;;;9.80;;
43990;SDS011;29654;50.784;20.604;2023-09-30T03:11:07;10.32;;;9.27;;
43990;SDS011;29654;50.784;20.604;2023-09-30T03:16:10;10.80;;;9.63;;
43990;SDS011;29654;50.784;20.604;2023-09-30T03:21:13;9.38;;;8.43;;
43990;SDS011;29654;50.784;20.604;2023-09-30T03:26:18;8.73;;;7.78;;
43990;SDS011;29654;50.784;20.604;2023-09-30T03:31:20;10.20;;;8.82;;
43990;SDS011;29654;50.784;20.604;2023-09-30T03:36:23;9.27;;;8.38;;
43990;SDS011;29654;50.784;20.604;2023-09-30T03:41:27;9.85;;;8.85;;
43990;SDS011;29654;50.784;20.604;2023-09-30T03:46:30;11.80;;;9.68;;
43990;SDS011;29654;50.784;20.604;2023-09-30T03:51:32;10.07;;;8.95;;
43990;SDS011;29654;50.784;20.604;2023-09-30T03:56:38;9.43;;;8.55;;
43990;SDS011;29654;50.784;20.604;2023-09-30T04:01:41;10.35;;;9.18;;
43990;SDS011;29654;50.784;20.604;2023-09-30T04:06:44;10.23;;;9.23;;
43990;SDS011;29654;50.784;20.604;2023-09-30T04:11:49;9.43;;;7.80;;
43990;SDS011;29654;50.784;20.604;2023-09-30T04:16:51;10.70;;;9.65;;
43990;SDS011;29654;50.784;20.604;2023-09-30T04:21:54;9.88;;;8.85;;
43990;SDS011;29654;50.784;20.604;2023-09-30T04:26:59;10.75;;;9.32;;
43990;SDS011;29654;50.784;20.604;2023-09-30T04:32:04;8.73;;;7.35;;
43990;SDS011;29654;50.784;20.604;2023-09-30T04:37:07;9.30;;;8.40;;
43990;SDS011;29654;50.784;20.604;2023-09-30T04:42:12;9.27;;;8.05;;
43990;SDS011;29654;50.784;20.604;2023-09-30T04:47:15;9.75;;;8.85;;
43990;SDS011;29654;50.784;20.604;2023-09-30T04:52:19;12.45;;;9.98;;
43990;SDS011;29654;50.784;20.604;2023-09-30T04:57:23;9.63;;;8.73;;
43990;SDS011;29654;50.784;20.604;2023-09-30T05:02:25;10.88;;;9.75;;
43990;SDS011;29654;50.784;20.604;2023-09-30T05:07:28;11.60;;;10.25;;
43990;SDS011;29654;50.784;20.604;2023-09-30T05:12:32;11.23;;;9.98;;
43990;SDS011;29654;50.784;20.604;2023-09-30T05:17:35;11.45;;;9.80;;
43990;SDS011;29654;50.784;20.604;2023-09-30T05:22:37;11.50;;;9.80;;
43990;SDS011;29654;50.784;20.604;2023-09-30T05:27:42;11.65;;;10.25;;
43990;SDS011;29654;50.784;20.604;2023-09-30T05:32:45;10.63;;;9.52;;
43990;SDS011;29654;50.784;20.604;2023-09-30T05:37:47;11.43;;;10.02;;
43990;SDS011;29654;50.784;20.604;2023-09-30T05:42:54;12.05;;;10.82;;
43990;SDS011;29654;50.784;20.604;2023-09-30T05:48:01;8.52;;;7.72;;
43990;SDS011;29654;50.784;20.604;2023-09-30T05:53:07;11.57;;;10.48;;
43990;SDS011;29654;50.784;20.604;2023-09-30T05:58:13;11.35;;;10.35;;
43990;SDS011;29654;50.784;20.604;2023-09-30T06:03:17;10.98;;;9.90;;
43990;SDS011;29654;50.784;20.604;2023-09-30T06:08:21;11.60;;;10.50;;
43990;SDS011;29654;50.784;20.604;2023-09-30T06:13:26;12.13;;;10.82;;
43990;SDS011;29654;50.784;20.604;2023-09-30T06:18:32;12.18;;;10.90;;
43990;SDS011;29654;50.784;20.604;2023-09-30T06:23:35;11.85;;;10.75;;
43990;SDS011;29654;50.784;20.604;2023-09-30T06:28:40;11.00;;;10.00;;
43990;SDS011;29654;50.784;20.604;2023-09-30T06:33:43;11.73;;;10.63;;
43990;SDS011;29654;50.784;20.604;2023-09-30T06:38:46;13.02;;;10.23;;
43990;SDS011;29654;50.784;20.604;2023-09-30T06:43:52;11.13;;;10.02;;
43990;SDS011;29654;50.784;20.604;2023-09-30T06:48:55;11.57;;;10.30;;
43990;SDS011;29654;50.784;20.604;2023-09-30T06:53:57;13.30;;;10.07;;
43990;SDS011;29654;50.784;20.604;2023-09-30T06:59:02;10.48;;;9.45;;
43990;SDS011;29654;50.784;20.604;2023-09-30T07:04:06;11.35;;;9.88;;
43990;SDS011;29654;50.784;20.604;2023-09-30T07:09:11;12.75;;;9.93;;
43990;SDS011;29654;50.784;20.604;2023-09-30T07:14:15;10.90;;;9.80;;
43990;SDS011;29654;50.784;20.604;2023-09-30T07:19:17;11.40;;;10.10;;
43990;SDS011;29654;50.784;20.604;2023-09-30T07:24:20;13.38;;;10.30;;
43990;SDS011;29654;50.784;20.604;2023-09-30T07:29:24;11.43;;;9.43;;
43990;SDS011;29654;50.784;20.604;2023-09-30T07:34:26;13.10;;;9.43;;
43990;SDS011;29654;50.784;20.604;2023-09-30T07:39:29;16.05;;;9.68;;
43990;SDS011;29654;50.784;20.604;2023-09-30T07:44:33;10.65;;;9.57;;
43990;SDS011;29654;50.784;20.604;2023-09-30T07:49:37;10.32;;;9.32;;
43990;SDS011;29654;50.784;20.604;2023-09-30T07:54:40;10.65;;;9.43;;
43990;SDS011;29654;50.784;20.604;2023-09-30T07:59:45;10.68;;;8.45;;
43990;SDS011;29654;50.784;20.604;2023-09-30T08:04:48;10.68;;;9.65;;
43990;SDS011;29654;50.784;20.604;2023-09-30T08:09:51;10.35;;;9.27;;
43990;SDS011;29654;50.784;20.604;2023-09-30T08:14:55;9.02;;;8.13;;
43990;SDS011;29654;50.784;20.604;2023-09-30T08:19:58;10.55;;;8.93;;
43990;SDS011;29654;50.784;20.604;2023-09-30T08:25:00;9.50;;;8.63;;
43990;SDS011;29654;50.784;20.604;2023-09-30T08:30:05;10.20;;;9.30;;
43990;SDS011;29654;50.784;20.604;2023-09-30T08:35:10;9.45;;;8.65;;
43990;SDS011;29654;50.784;20.604;2023-09-30T08:40:14;10.52;;;9.43;;
43990;SDS011;29654;50.784;20.604;2023-09-30T08:45:23;10.13;;;9.20;;
43990;SDS011;29654;50.784;20.604;2023-09-30T08:50:29;10.52;;;9.07;;
43990;SDS011;29654;50.784;20.604;2023-09-30T08:55:32;10.02;;;9.18;;
43990;SDS011;29654;50.784;20.604;2023-09-30T09:00:38;11.50;;;9.07;;
43990;SDS011;29654;50.784;20.604;2023-09-30T09:05:41;8.68;;;7.88;;
43990;SDS011;29654;50.784;20.604;2023-09-30T09:10:52;9.40;;;8.60;;
43990;SDS011;29654;50.784;20.604;2023-09-30T09:16:08;9.82;;;8.80;;
43990;SDS011;29654;50.784;20.604;2023-09-30T09:21:12;10.80;;;9.70;;
43990;SDS011;29654;50.784;20.604;2023-09-30T09:26:22;10.35;;;9.38;;
43990;SDS011;29654;50.784;20.604;2023-09-30T09:31:28;10.48;;;9.48;;
43990;SDS011;29654;50.784;20.604;2023-09-30T09:36:38;10.20;;;9.13;;
43990;SDS011;29654;50.784;20.604;2023-09-30T09:41:48;10.40;;;9.32;;
43990;SDS011;29654;50.784;20.604;2023-09-30T09:46:53;10.07;;;9.10;;
43990;SDS011;29654;50.784;20.604;2023-09-30T09:51:59;10.18;;;9.25;;
43990;SDS011;29654;50.784;20.604;2023-09-30T09:57:04;9.88;;;9.02;;
43990;SDS011;29654;50.784;20.604;2023-09-30T10:02:12;9.60;;;8.70;;
43990;SDS011;29654;50.784;20.604;2023-09-30T10:07:19;10.88;;;9.77;;
43990;SDS011;29654;50.784;20.604;2023-09-30T10:12:26;11.95;;;10.85;;
43990;SDS011;29654;50.784;20.604;2023-09-30T10:28:34;11.65;;;10.55;;
43990;SDS011;29654;50.784;20.604;2023-09-30T10:44:55;12.32;;;11.20;;
43990;SDS011;29654;50.784;20.604;2023-09-30T10:49:59;13.52;;;12.23;;
43990;SDS011;29654;50.784;20.604;2023-09-30T10:55:03;11.73;;;10.60;;
43990;SDS011;29654;50.784;20.604;2023-09-30T11:00:08;12.32;;;11.10;;
43990;SDS011;29654;50.784;20.604;2023-09-30T11:05:13;13.65;;;12.38;;
43990;SDS011;29654;50.784;20.604;2023-09-30T11:10:16;12.02;;;10.85;;
43990;SDS011;29654;50.784;20.604;2023-09-30T11:15:19;11.57;;;10.38;;
43990;SDS011;29654;50.784;20.604;2023-09-30T11:20:23;11.10;;;9.82;;
43990;SDS011;29654;50.784;20.604;2023-09-30T11:25:26;11.52;;;10.27;;
43990;SDS011;29654;50.784;20.604;2023-09-30T11:30:28;11.32;;;10.23;;
43990;SDS011;29654;50.784;20.604;2023-09-30T11:35:32;12.02;;;9.80;;
43990;SDS011;29654;50.784;20.604;2023-09-30T11:40:35;11.93;;;10.73;;
43990;SDS011;29654;50.784;20.604;2023-09-30T11:45:38;11.95;;;10.75;;
43990;SDS011;29654;50.784;20.604;2023-09-30T11:50:48;10.38;;;9.30;;
43990;SDS011;29654;50.784;20.604;2023-09-30T11:55:53;11.52;;;10.00;;
43990;SDS011;29654;50.784;20.604;2023-09-30T12:00:57;10.00;;;9.02;;
43990;SDS011;29654;50.784;20.604;2023-09-30T12:06:02;11.27;;;10.07;;
43990;SDS011;29654;50.784;20.604;2023-09-30T12:11:05;10.77;;;9.65;;
43990;SDS011;29654;50.784;20.604;2023-09-30T12:16:07;11.80;;;9.20;;
43990;SDS011;29654;50.784;20.604;2023-09-30T12:21:11;9.18;;;8.27;;
43990;SDS011;29654;50.784;20.604;2023-09-30T12:26:14;10.52;;;8.15;;
43990;SDS011;29654;50.784;20.604;2023-09-30T12:31:20;9.95;;;8.45;;
43990;SDS011;29654;50.784;20.604;2023-09-30T12:36:25;9.68;;;8.23;;
43990;SDS011;29654;50.784;20.604;2023-09-30T12:41:28;8.77;;;7.88;;
43990;SDS011;29654;50.784;20.604;2023-09-30T12:46:33;9.60;;;8.57;;
43990;SDS011;29654;50.784;20.604;2023-09-30T12:51:38;9.30;;;8.32;;
43990;SDS011;29654;50.784;20.604;2023-09-30T12:56:41;11.55;;;9.75;;
43990;SDS011;29654;50.784;20.604;2023-09-30T13:01:43;11.07;;;7.63;;
43990;SDS011;29654;50.784;20.604;2023-09-30T13:06:48;9.32;;;7.35;;
43990;SDS011;29654;50.784;20.604;2023-09-30T13:11:50;10.02;;;7.03;;
43990;SDS011;29654;50.784;20.604;2023-09-30T13:16:53;10.57;;;7.22;;
43990;SDS011;29654;50.784;20.604;2023-09-30T13:21:57;16.30;;;13.02;;
43990;SDS011;29654;50.784;20.604;2023-09-30T13:26:59;11.25;;;7.80;;
43990;SDS011;29654;50.784;20.604;2023-09-30T13:32:02;9.98;;;6.70;;
43990;SDS011;29654;50.784;20.604;2023-09-30T13:37:06;5.97;;;4.32;;
43990;SDS011;29654;50.784;20.604;2023-09-30T13:42:09;6.25;;;4.03;;
43990;SDS011;29654;50.784;20.604;2023-09-30T13:47:11;8.07;;;5.97;;
43990;SDS011;29654;50.784;20.604;2023-09-30T13:52:15;9.73;;;4.60;;
43990;SDS011;29654;50.784;20.604;2023-09-30T13:57:18;4.38;;;3.80;;
43990;SDS011;29654;50.784;20.604;2023-09-30T14:02:20;5.13;;;3.05;;
43990;SDS011;29654;50.784;20.604;2023-09-30T14:07:24;2.83;;;2.40;;
43990;SDS011;29654;50.784;20.604;2023-09-30T14:12:28;2.95;;;2.47;;
43990;SDS011;29654;50.784;20.604;2023-09-30T14:17:31;4.35;;;3.50;;
43990;SDS011;29654;50.784;20.604;2023-09-30T14:22:36;5.18;;;4.57;;
43990;SDS011;29654;50.784;20.604;2023-09-30T14:27:39;5.90;;;3.80;;
43990;SDS011;29654;50.784;20.604;2023-09-30T14:32:42;5.07;;;3.03;;
43990;SDS011;29654;50.784;20.604;2023-09-30T14:37:46;5.57;;;3.00;;
43990;SDS011;29654;50.784;20.604;2023-09-30T14:42:48;4.13;;;2.97;;
43990;SDS011;29654;50.784;20.604;2023-09-30T14:47:51;2.65;;;2.08;;
43990;SDS011;29654;50.784;20.604;2023-09-30T14:52:55;3.95;;;2.85;;
43990;SDS011;29654;50.784;20.604;2023-09-30T14:57:57;3.67;;;2.80;;
43990;SDS011;29654;50.784;20.604;2023-09-30T15:03:00;6.18;;;3.53;;
43990;SDS011;29654;50.784;20.604;2023-09-30T15:08:04;5.18;;;3.42;;
43990;SDS011;29654;50.784;20.604;2023-09-30T15:13:06;4.35;;;3.25;;
43990;SDS011;29654;50.784;20.604;2023-09-30T15:18:09;4.75;;;2.97;;
43990;SDS011;29654;50.784;20.604;2023-09-30T15:23:13;4.03;;;2.22;;
43990;SDS011;29654;50.784;20.604;2023-09-30T15:28:16;4.28;;;2.60;;
43990;SDS011;29654;50.784;20.604;2023-09-30T15:33:18;4.25;;;2.20;;
43990;SDS011;29654;50.784;20.604;2023-09-30T15:38:22;3.92;;;3.08;;
43990;SDS011;29654;50.784;20.604;2023-09-30T15:43:25;3.35;;;2.72;;
43990;SDS011;29654;50.784;20.604;2023-09-30T15:48:27;3.25;;;2.53;;
43990;SDS011;29654;50.784;20.604;2023-09-30T15:53:31;3.78;;;2.70;;
43990;SDS011;29654;50.784;20.604;2023-09-30T15:58:36;6.95;;;5.60;;
43990;SDS011;29654;50.784;20.604;2023-09-30T16:03:38;5.18;;;3.67;;
43990;SDS011;29654;50.784;20.604;2023-09-30T16:08:44;4.18;;;3.72;;
43990;SDS011;29654;50.784;20.604;2023-09-30T16:13:46;4.88;;;3.55;;
43990;SDS011;29654;50.784;20.604;2023-09-30T16:18:49;7.32;;;4.20;;
43990;SDS011;29654;50.784;20.604;2023-09-30T16:23:53;4.07;;;2.63;;
43990;SDS011;29654;50.784;20.604;2023-09-30T16:28:55;3.72;;;2.20;;
43990;SDS011;29654;50.784;20.604;2023-09-30T16:33:59;2.08;;;1.88;;
43990;SDS011;29654;50.784;20.604;2023-09-30T16:39:03;3.75;;;2.40;;
43990;SDS011;29654;50.784;20.604;2023-09-30T16:44:05;3.40;;;2.20;;
43990;SDS011;29654;50.784;20.604;2023-09-30T16:49:08;4.03;;;2.42;;
43990;SDS011;29654;50.784;20.604;2023-09-30T16:54:12;3.08;;;2.10;;
43990;SDS011;29654;50.784;20.604;2023-09-30T16:59:15;3.53;;;2.85;;
43990;SDS011;29654;50.784;20.604;2023-09-30T17:04:17;7.72;;;5.70;;
43990;SDS011;29654;50.784;20.604;2023-09-30T17:09:21;8.65;;;6.18;;
43990;SDS011;29654;50.784;20.604;2023-09-30T17:14:24;3.53;;;3.05;;
43990;SDS011;29654;50.784;20.604;2023-09-30T17:19:27;3.97;;;2.35;;
43990;SDS011;29654;50.784;20.604;2023-09-30T17:24:31;3.20;;;2.28;;
43990;SDS011;29654;50.784;20.604;2023-09-30T17:29:34;5.78;;;4.57;;
43990;SDS011;29654;50.784;20.604;2023-09-30T17:34:37;5.53;;;2.63;;
43990;SDS011;29654;50.784;20.604;2023-09-30T17:39:41;3.50;;;2.83;;
43990;SDS011;29654;50.784;20.604;2023-09-30T17:44:45;5.38;;;3.13;;
43990;SDS011;29654;50.784;20.604;2023-09-30T17:49:48;6.65;;;3.67;;
43990;SDS011;29654;50.784;20.604;2023-09-30T17:54:52;5.68;;;3.90;;
43990;SDS011;29654;50.784;20.604;2023-09-30T17:59:54;5.55;;;3.65;;
43990;SDS011;29654;50.784;20.604;2023-09-30T18:04:57;12.80;;;8.00;;
43990;SDS011;29654;50.784;20.604;2023-09-30T18:10:01;10.57;;;8.40;;
43990;SDS011;29654;50.784;20.604;2023-09-30T18:15:05;9.10;;;6.93;;
43990;SDS011;29654;50.784;20.604;2023-09-30T18:20:09;8.80;;;5.88;;
43990;SDS011;29654;50.784;20.604;2023-09-30T18:25:14;6.18;;;4.45;;
43990;SDS011;29654;50.784;20.604;2023-09-30T18:30:16;7.53;;;6.72;;
43990;SDS011;29654;50.784;20.604;2023-09-30T18:35:19;5.75;;;4.18;;
43990;SDS011;29654;50.784;20.604;2023-09-30T18:40:23;5.45;;;4.63;;
43990;SDS011;29654;50.784;20.604;2023-09-30T18:45:26;5.55;;;3.45;;
43990;SDS011;29654;50.784;20.604;2023-09-30T18:50:39;4.82;;;3.03;;
43990;SDS011;29654;50.784;20.604;2023-09-30T18:55:45;4.72;;;2.92;;
43990;SDS011;29654;50.784;20.604;2023-09-30T19:00:48;5.93;;;3.58;;
43990;SDS011;29654;50.784;20.604;2023-09-30T19:05:51;5.10;;;3.28;;
43990;SDS011;29654;50.784;20.604;2023-09-30T19:10:56;5.60;;;3.17;;
43990;SDS011;29654;50.784;20.604;2023-09-30T19:16:02;5.18;;;2.40;;
43990;SDS011;29654;50.784;20.604;2023-09-30T19:21:05;6.72;;;3.63;;
43990;SDS011;29654;50.784;20.604;2023-09-30T19:26:13;3.85;;;2.53;;
43990;SDS011;29654;50.784;20.604;2023-09-30T19:31:16;4.80;;;2.75;;
43990;SDS011;29654;50.784;20.604;2023-09-30T19:36:19;7.40;;;2.80;;
43990;SDS011;29654;50.784;20.604;2023-09-30T19:41:23;3.42;;;2.67;;
43990;SDS011;29654;50.784;20.604;2023-09-30T19:46:26;4.00;;;2.67;;
43990;SDS011;29654;50.784;20.604;2023-09-30T19:51:30;5.65;;;3.03;;
43990;SDS011;29654;50.784;20.604;2023-09-30T19:56:37;8.75;;;3.42;;
43990;SDS011;29654;50.784;20.604;2023-09-30T20:01:39;5.00;;;3.30;;
43990;SDS011;29654;50.784;20.604;2023-09-30T20:06:42;5.88;;;2.97;;
43990;SDS011;29654;50.784;20.604;2023-09-30T20:11:46;7.10;;;3.42;;
43990;SDS011;29654;50.784;20.604;2023-09-30T20:16:48;4.45;;;3.50;;
43990;SDS011;29654;50.784;20.604;2023-09-30T20:21:52;5.85;;;3.70;;
43990;SDS011;29654;50.784;20.604;2023-09-30T20:26:55;4.90;;;2.88;;
43990;SDS011;29654;50.784;20.604;2023-09-30T20:31:58;4.72;;;2.63;;
43990;SDS011;29654;50.784;20.604;2023-09-30T20:37:01;11.95;;;2.88;;
43990;SDS011;29654;50.784;20.604;2023-09-30T20:42:06;5.05;;;3.10;;
43990;SDS011;29654;50.784;20.604;2023-09-30T20:47:08;6.07;;;4.13;;
43990;SDS011;29654;50.784;20.604;2023-09-30T20:52:11;6.03;;;3.95;;
43990;SDS011;29654;50.784;20.604;2023-09-30T20:57:15;6.78;;;3.92;;
43990;SDS011;29654;50.784;20.604;2023-09-30T21:02:18;4.65;;;3.30;;
43990;SDS011;29654;50.784;20.604;2023-09-30T21:07:21;5.85;;;3.70;;
43990;SDS011;29654;50.784;20.604;2023-09-30T21:12:25;4.13;;;2.65;;
43990;SDS011;29654;50.784;20.604;2023-09-30T21:17:27;7.05;;;2.90;;
43990;SDS011;29654;50.784;20.604;2023-09-30T21:22:31;7.95;;;4.00;;
43990;SDS011;29654;50.784;20.604;2023-09-30T21:27:35;6.15;;;3.03;;
43990;SDS011;29654;50.784;20.604;2023-09-30T21:32:38;4.60;;;3.35;;
43990;SDS011;29654;50.784;20.604;2023-09-30T21:37:40;7.40;;;3.45;;
43990;SDS011;29654;50.784;20.604;2023-09-30T21:42:45;7.32;;;3.25;;
43990;SDS011;29654;50.784;20.604;2023-09-30T21:47:47;5.13;;;3.58;;
43990;SDS011;29654;50.784;20.604;2023-09-30T21:52:50;4.60;;;3.10;;
43990;SDS011;29654;50.784;20.604;2023-09-30T21:57:54;6.43;;;3.50;;
43990;SDS011;29654;50.784;20.604;2023-09-30T22:02:56;7.50;;;4.00;;
43990;SDS011;29654;50.784;20.604;2023-09-30T22:07:59;6.60;;;3.72;;
43990;SDS011;29654;50.784;20.604;2023-09-30T22:13:04;6.18;;;3.22;;
43990;SDS011;29654;50.784;20.604;2023-09-30T22:18:07;3.85;;;3.05;;
43990;SDS011;29654;50.784;20.604;2023-09-30T22:23:11;6.10;;;2.90;;
43990;SDS011;29654;50.784;20.604;2023-09-30T22:28:15;4.78;;;3.20;;
43990;SDS011;29654;50.784;20.604;2023-09-30T22:33:18;5.20;;;3.10;;
43990;SDS011;29654;50.784;20.604;2023-09-30T22:38:20;3.92;;;2.80;;
43990;SDS011;29654;50.784;20.604;2023-09-30T22:43:24;2.80;;;2.38;;
43990;SDS011;29654;50.784;20.604;2023-09-30T22:48:27;4.93;;;2.72;;
43990;SDS011;29654;50.784;20.604;2023-09-30T22:53:30;4.72;;;3.13;;
43990;SDS011;29654;50.784;20.604;2023-09-30T22:58:33;6.82;;;3.13;;
43990;SDS011;29654;50.784;20.604;2023-09-30T23:03:36;5.85;;;3.58;;
43990;SDS011;29654;50.784;20.604;2023-09-30T23:08:39;4.93;;;3.38;;
43990;SDS011;29654;50.784;20.604;2023-09-30T23:13:43;7.32;;;3.92;;
43990;SDS011;29654;50.784;20.604;2023-09-30T23:18:47;4.88;;;3.22;;
43990;SDS011;29654;50.784;20.604;2023-09-30T23:23:49;4.55;;;3.15;;
43990;SDS011;29654;50.784;20.604;2023-09-30T23:28:53;4.55;;;3.22;;
43990;SDS011;29654;50.784;20.604;2023-09-30T23:33:58;4.05;;;3.08;;
43990;SDS011;29654;50.784;20.604;2023-09-30T23:39:03;6.00;;;3.25;;
43990;SDS011;29654;50.784;20.604;2023-09-30T23:44:12;5.68;;;3.83;;
43990;SDS011;29654;50.784;20.604;2023-09-30T23:49:17;4.78;;;3.50;;
43990;SDS011;29654;50.784;20.604;2023-09-30T23:54:26;8.52;;;3.08;;
43990;SDS011;29654;50.784;20.604;2023-09-30T23:59:29;4.28;;;2.97;;
